Time;durP1;ratioP1;P1;durP2;ratioP2;P2;SDS_P1;SDS_P2;PMS_P1;PMS_P2;Temp;Humidity;BMP_temperature;BMP_pressure;BME280_temperature;BME280_humidity;BME280_pressure;Samples;Min_cycle;Max_cycle;Signal;HPM_P1;HPM_P2
2022/05/25 00:01:42;;;;;;;8.15;6.75;;;;;;;17.78;64.02;95291.44;5086376;28;20492;-83
2022/05/25 00:04:08;;;;;;;8.48;6.72;;;;;;;17.76;64.00;95282.72;5083909;28;20423;-82
2022/05/25 00:06:33;;;;;;;8.25;6.45;;;;;;;17.75;64.02;95291.88;5051995;28;20060;-83
2022/05/25 00:08:59;;;;;;;7.68;6.47;;;;;;;17.72;64.17;95286.09;5085095;28;20036;-83
2022/05/25 00:11:24;;;;;;;7.70;6.40;;;;;;;17.65;64.24;95292.41;5086699;28;20084;-83
2022/05/25 00:13:50;;;;;;;11.57;6.55;;;;;;;17.52;64.69;95290.66;5083704;28;20027;-84
2022/05/25 00:16:15;;;;;;;8.88;7.13;;;;;;;17.47;65.14;95295.13;5070464;28;20106;-85
2022/05/25 00:21:24;;;;;;;7.18;6.25;;;;;;;17.42;65.22;95303.94;5087930;28;20081;-84
2022/05/25 00:23:50;;;;;;;8.93;6.30;;;;;;;17.36;65.03;95304.81;5089353;28;20028;-84
2022/05/25 00:26:15;;;;;;;8.55;6.25;;;;;;;17.34;65.37;95294.22;5086889;28;20028;-84
2022/05/25 00:28:41;;;;;;;9.20;6.43;;;;;;;17.33;65.21;95295.25;5090515;28;20074;-83
2022/05/25 00:31:08;;;;;;;6.88;6.18;;;;;;;17.30;65.11;95288.41;5088581;28;20077;-83
2022/05/25 00:33:34;;;;;;;7.70;6.88;;;;;;;17.18;65.37;95291.00;5090104;28;20563;-82
2022/05/25 00:35:59;;;;;;;8.20;6.65;;;;;;;17.17;65.34;95297.47;5087917;28;20060;-82
2022/05/25 00:38:24;;;;;;;7.60;6.50;;;;;;;17.15;65.34;95296.84;5089249;28;20067;-84
2022/05/25 00:40:50;;;;;;;7.68;6.90;;;;;;;17.14;64.93;95295.22;5090140;28;20024;-83
2022/05/25 00:43:15;;;;;;;11.55;7.30;;;;;;;17.08;64.74;95301.53;5088427;28;20035;-84
2022/05/25 00:45:49;;;;;;;8.52;7.47;;;;;;;17.05;64.91;95299.22;5088614;28;20044;-81
2022/05/25 00:48:23;;;;;;;12.63;7.28;;;;;;;17.02;65.02;95291.53;5088375;28;20020;-84
2022/05/25 00:53:33;;;;;;;8.40;7.60;;;;;;;16.91;65.18;95293.91;5074142;28;20070;-83
2022/05/25 00:55:58;;;;;;;9.60;8.02;;;;;;;16.90;65.12;95294.13;5070529;28;20448;-83
2022/05/25 00:58:24;;;;;;;8.15;7.10;;;;;;;16.88;65.15;95294.34;5088594;28;20039;-82
2022/05/25 01:00:49;;;;;;;8.38;7.45;;;;;;;16.88;65.08;95294.34;5088137;28;20027;-82
2022/05/25 01:03:15;;;;;;;9.65;7.85;;;;;;;16.76;65.49;95304.25;5090299;28;20035;-84
2022/05/25 01:05:59;;;;;;;14.70;7.90;;;;;;;16.80;65.09;95308.16;5087747;28;20053;-83
2022/05/25 01:08:31;;;;;;;8.98;7.32;;;;;;;16.76;64.96;95296.13;5089786;28;20031;-83
2022/05/25 01:11:30;;;;;;;8.80;7.90;;;;;;;16.81;63.73;95301.72;5088143;28;20035;-84
2022/05/25 01:13:55;;;;;;;11.57;7.95;;;;;;;16.77;63.70;95308.59;5086511;28;20119;-85
2022/05/25 01:16:34;;;;;;;9.48;7.80;;;;;;;16.73;63.55;95308.22;5089810;28;20108;-83
2022/05/25 01:19:39;;;;;;;9.95;7.82;;;;;;;16.66;63.83;95315.53;5086513;28;20028;-83
2022/05/25 01:22:13;;;;;;;8.30;7.40;;;;;;;16.63;62.95;95319.53;5088179;28;20032;-83
2022/05/25 01:24:38;;;;;;;8.77;7.85;;;;;;;16.52;63.14;95325.63;5089321;28;20031;-83
2022/05/25 01:27:13;;;;;;;9.77;8.77;;;;;;;16.49;63.55;95323.38;5087011;28;20115;-84
2022/05/25 01:29:45;;;;;;;9.65;8.57;;;;;;;16.44;63.86;95316.72;5089087;28;20032;-82
2022/05/25 01:32:32;;;;;;;10.95;7.97;;;;;;;16.38;64.23;95319.47;5070556;28;20032;-81
2022/05/25 01:35:09;;;;;;;11.10;8.68;;;;;;;16.26;64.70;95320.16;5087666;28;20035;-84
2022/05/25 01:37:37;;;;;;;9.77;8.30;;;;;;;16.27;64.33;95327.22;5054388;28;20024;-82
2022/05/25 01:40:23;;;;;;;11.48;8.77;;;;;;;16.17;64.54;95316.84;5087142;28;20469;-84
2022/05/25 01:43:01;;;;;;;12.25;8.07;;;;;;;16.22;63.71;95323.50;5054804;28;20539;-83
2022/05/25 01:45:29;;;;;;;8.85;7.90;;;;;;;16.17;62.86;95324.97;5071316;28;20120;-83
2022/05/25 01:47:55;;;;;;;8.63;7.82;;;;;;;16.13;63.60;95326.47;5069508;28;20115;-84
2022/05/25 01:50:23;;;;;;;12.63;7.60;;;;;;;16.14;63.28;95333.53;5071088;28;20050;-84
2022/05/25 01:52:51;;;;;;;11.45;7.50;;;;;;;16.13;63.62;95331.03;5068822;28;20783;-83
2022/05/25 01:55:20;;;;;;;11.73;8.05;;;;;;;16.09;63.91;95325.22;5071500;28;20032;-84
2022/05/25 01:57:47;;;;;;;9.75;7.90;;;;;;;16.02;64.71;95335.25;5069015;28;20028;-83
2022/05/25 02:00:43;;;;;;;9.32;8.35;;;;;;;15.97;64.64;95345.84;5070933;28;20075;-84
2022/05/25 02:06:19;;;;;;;9.40;8.20;;;;;;;15.88;64.96;95340.66;5071172;28;20082;-84
2022/05/25 02:09:02;;;;;;;11.15;7.88;;;;;;;15.88;64.16;95348.75;5071105;28;20028;-83
2022/05/25 02:11:45;;;;;;;10.68;8.27;;;;;;;15.81;64.39;95346.06;5088252;28;20032;-84
2022/05/25 02:14:40;;;;;;;9.32;8.18;;;;;;;15.79;64.46;95348.19;5085453;28;20024;-84
2022/05/25 02:17:26;;;;;;;10.43;8.90;;;;;;;15.72;65.73;95346.53;5086128;28;20048;-84
2022/05/25 02:20:12;;;;;;;11.02;8.30;;;;;;;15.64;66.05;95350.28;5086068;28;20405;-83
2022/05/25 02:22:41;;;;;;;10.02;8.68;;;;;;;15.63;66.54;95349.47;5085495;28;20060;-83
2022/05/25 02:25:09;;;;;;;10.30;9.18;;;;;;;15.64;66.36;95367.34;5088164;28;20482;-84
2022/05/25 02:27:35;;;;;;;13.40;8.70;;;;;;;15.62;66.83;95361.31;5086572;28;20485;-84
2022/05/25 02:30:07;;;;;;;11.57;9.55;;;;;;;15.62;66.98;95368.59;5070218;28;20527;-84
2022/05/25 02:32:32;;;;;;;14.10;10.75;;;;;;;15.63;67.65;95372.94;5068675;28;20107;-83
2022/05/25 02:34:57;;;;;;;13.95;11.20;;;;;;;15.54;67.86;95366.94;5087752;28;20109;-84
2022/05/25 02:37:24;;;;;;;16.10;14.30;;;;;;;15.59;68.02;95380.66;5069805;28;20024;-84
2022/05/25 02:39:50;;;;;;;16.85;13.88;;;;;;;15.56;68.33;95372.97;5051413;28;20020;-84
2022/05/25 02:42:16;;;;;;;23.55;21.02;;;;;;;15.51;68.50;95376.28;5086727;28;20024;-82
2022/05/25 02:44:42;;;;;;;21.95;19.65;;;;;;;15.50;68.74;95371.94;5067806;28;20105;-84
2022/05/25 02:47:08;;;;;;;23.67;21.27;;;;;;;15.51;68.91;95365.47;5086489;28;20054;-87
2022/05/25 02:49:34;;;;;;;21.83;18.73;;;;;;;15.50;68.51;95371.94;5086283;28;20418;-82
2022/05/25 02:51:59;;;;;;;19.15;16.85;;;;;;;15.50;66.92;95371.09;5087840;28;20020;-84
2022/05/25 02:54:25;;;;;;;19.48;16.98;;;;;;;15.42;66.88;95378.41;5085552;28;20065;-83
2022/05/25 02:56:50;;;;;;;18.50;16.45;;;;;;;15.44;66.60;95373.59;5087068;28;20031;-86
2022/05/25 02:59:16;;;;;;;20.80;16.35;;;;;;;15.43;66.47;95382.75;5069324;28;20032;-85
2022/05/25 03:01:41;;;;;;;21.27;16.38;;;;;;;15.41;66.58;95384.00;5084673;28;20403;-82
2022/05/25 03:04:07;;;;;;;16.40;14.18;;;;;;;15.40;66.21;95385.03;5087412;28;20406;-84
2022/05/25 03:06:32;;;;;;;14.70;13.13;;;;;;;15.37;66.45;95385.44;5067649;28;20406;-82
2022/05/25 03:08:57;;;;;;;25.08;15.98;;;;;;;15.39;66.52;95391.47;5088062;28;20410;-86
2022/05/25 03:11:24;;;;;;;27.33;21.23;;;;;;;15.39;66.94;95397.72;5084267;28;20474;-84
2022/05/25 03:13:49;;;;;;;25.13;19.50;;;;;;;15.39;66.98;95397.72;5069367;28;20024;-86
2022/05/25 03:16:15;;;;;;;21.98;16.45;;;;;;;15.39;67.08;95399.59;5051832;28;20024;-85
2022/05/25 03:18:42;;;;;;;17.08;13.85;;;;;;;15.38;66.80;95400.66;5086365;28;20061;-85
2022/05/25 03:21:08;;;;;;;16.95;12.25;;;;;;;15.42;66.88;95401.88;5069324;28;20081;-86
2022/05/25 03:23:34;;;;;;;16.02;13.75;;;;;;;15.44;67.19;95402.50;5084182;28;20081;-83
2022/05/25 03:25:59;;;;;;;18.02;10.70;;;;;;;15.41;66.52;95409.13;5086427;28;20075;-84
2022/05/25 03:28:25;;;;;;;12.80;10.30;;;;;;;15.38;66.67;95406.84;5084190;28;20024;-84
2022/05/25 03:30:50;;;;;;;13.80;9.80;;;;;;;15.42;66.08;95416.22;5087578;28;20141;-84
2022/05/25 03:33:16;;;;;;;16.25;9.77;;;;;;;15.38;65.59;95422.25;5084167;28;20039;-83
2022/05/25 03:35:41;;;;;;;9.88;8.90;;;;;;;15.37;65.79;95431.38;5068287;28;20556;-83
2022/05/25 03:38:07;;;;;;;11.95;8.60;;;;;;;15.33;65.80;95431.81;5087618;28;20028;-83
2022/05/25 03:40:33;;;;;;;15.95;10.27;;;;;;;15.35;65.46;95439.69;5087857;28;20440;-85
2022/05/25 03:42:58;;;;;;;12.23;8.95;;;;;;;15.32;65.55;95434.72;5087103;28;20471;-82
2022/05/25 03:45:24;;;;;;;9.45;8.48;;;;;;;15.38;65.65;95433.06;5083612;28;20037;-84
2022/05/25 03:47:49;;;;;;;12.90;8.70;;;;;;;15.40;65.49;95437.22;5086012;28;20024;-84
2022/05/25 03:50:14;;;;;;;13.75;9.43;;;;;;;15.45;65.22;95445.53;5087194;28;20036;-84
2022/05/25 03:52:40;;;;;;;13.05;9.05;;;;;;;15.46;65.11;95451.75;5089946;28;20422;-83
2022/05/25 03:55:06;;;;;;;12.95;9.55;;;;;;;15.53;65.02;95459.88;5089128;28;20487;-85
2022/05/25 03:57:32;;;;;;;11.75;8.85;;;;;;;15.56;65.00;95451.34;5088622;28;20101;-83
2022/05/25 03:59:57;;;;;;;11.38;9.00;;;;;;;15.58;65.27;95454.69;5089957;28;20020;-83
2022/05/25 04:02:23;;;;;;;11.55;8.45;;;;;;;15.59;65.41;95450.94;5087923;28;20101;-85
2022/05/25 04:05:07;;;;;;;12.00;9.55;;;;;;;15.66;65.45;95448.22;5072880;28;20032;-83
2022/05/25 04:07:35;;;;;;;16.00;9.70;;;;;;;15.73;65.53;95449.06;5089844;28;20039;-83
2022/05/25 04:10:01;;;;;;;12.30;9.60;;;;;;;15.71;65.60;95456.56;5089946;28;20028;-83
2022/05/25 04:12:26;;;;;;;12.88;9.45;;;;;;;15.80;65.32;95458.00;5088719;28;20035;-85
2022/05/25 04:14:52;;;;;;;12.85;9.35;;;;;;;15.89;65.38;95455.91;5089995;28;20452;-84
2022/05/25 04:17:19;;;;;;;12.35;9.63;;;;;;;15.98;65.46;95456.53;5091161;28;20478;-83
2022/05/25 04:19:44;;;;;;;11.80;9.02;;;;;;;16.02;65.67;95451.56;5088728;28;20058;-83
2022/05/25 04:22:10;;;;;;;12.43;10.30;;;;;;;16.07;65.32;95449.06;5089575;28;20028;-84
2022/05/25 04:24:35;;;;;;;15.32;10.77;;;;;;;16.10;65.35;95447.78;5087270;28;20612;-84
2022/05/25 04:27:01;;;;;;;16.67;11.65;;;;;;;15.97;66.23;95456.72;5090803;28;20513;-84
2022/05/25 04:29:26;;;;;;;13.32;9.85;;;;;;;16.17;65.56;95457.53;5089132;28;20051;-83
2022/05/25 04:31:52;;;;;;;12.20;10.90;;;;;;;16.40;65.05;95461.66;5090311;28;20077;-83
2022/05/25 04:34:17;;;;;;;15.63;9.55;;;;;;;16.58;64.51;95464.69;5089903;28;20024;-82
2022/05/25 04:36:44;;;;;;;17.65;10.45;;;;;;;16.62;64.80;95460.53;5088921;28;20593;-86
2022/05/25 04:39:09;;;;;;;13.55;10.23;;;;;;;16.87;63.53;95467.91;5089330;28;20113;-85
2022/05/25 04:41:36;;;;;;;12.20;9.43;;;;;;;16.99;63.14;95465.38;5088213;28;20494;-85
2022/05/25 04:44:03;;;;;;;14.18;9.40;;;;;;;17.08;62.86;95466.78;5072100;28;20044;-84
2022/05/25 04:46:28;;;;;;;10.65;9.40;;;;;;;17.14;62.95;95460.50;5086727;28;20032;-83
2022/05/25 04:48:53;;;;;;;16.73;10.75;;;;;;;17.30;62.62;95477.28;5088572;28;20035;-81
2022/05/25 04:51:19;;;;;;;16.48;12.30;;;;;;;17.49;62.03;95466.53;5087447;28;20490;-83
2022/05/25 04:53:44;;;;;;;13.02;10.25;;;;;;;17.64;61.87;95467.03;5087745;28;20024;-84
2022/05/25 04:58:54;;;;;;;14.73;10.13;;;;;;;17.99;61.71;95459.44;5072456;28;20550;-83
2022/05/25 05:01:19;;;;;;;16.35;9.60;;;;;;;18.10;61.35;95463.28;5088152;28;20028;-83
2022/05/25 05:03:45;;;;;;;14.02;9.80;;;;;;;18.26;61.41;95464.63;5087997;28;20378;-84
2022/05/25 05:06:11;;;;;;;12.80;8.93;;;;;;;18.41;61.14;95464.25;5088483;28;20027;-84
2022/05/25 05:08:36;;;;;;;15.23;9.32;;;;;;;18.62;60.94;95462.97;5088251;28;20039;-84
2022/05/25 05:11:12;;;;;;;15.52;9.45;;;;;;;18.84;60.01;95459.78;5070906;28;21131;-85
2022/05/25 05:13:38;;;;;;;14.02;10.23;;;;;;;18.54;61.08;95471.41;5088126;28;20047;-86
2022/05/25 05:16:06;;;;;;;21.08;10.93;;;;;;;18.37;62.02;95472.03;5086258;28;20048;-84
2022/05/25 05:18:32;;;;;;;14.20;10.15;;;;;;;18.64;61.66;95474.44;5071638;28;20081;-84
2022/05/25 05:20:57;;;;;;;19.48;11.13;;;;;;;18.93;60.58;95478.47;5052642;28;20020;-85
2022/05/25 05:23:23;;;;;;;14.75;10.88;;;;;;;19.17;59.81;95479.44;5089458;28;20036;-85
2022/05/25 05:25:48;;;;;;;18.63;11.45;;;;;;;19.03;60.13;95479.59;5087597;28;20032;-85
2022/05/25 05:28:18;;;;;;;16.35;10.90;;;;;;;19.07;59.75;95490.81;5087627;28;20028;-85
2022/05/25 05:30:55;;;;;;;16.63;10.88;;;;;;;19.18;59.80;95489.25;5087427;28;20024;-85
2022/05/25 05:33:21;;;;;;;16.40;11.05;;;;;;;19.30;59.41;95489.28;5085864;28;20028;-83
2022/05/25 05:35:49;;;;;;;15.77;10.73;;;;;;;19.48;59.09;95484.84;5070824;28;20066;-84
2022/05/25 05:38:15;;;;;;;14.55;10.77;;;;;;;19.72;58.63;95502.06;5069330;28;20024;-84
2022/05/25 05:40:41;;;;;;;13.18;11.25;;;;;;;19.98;57.89;95499.13;5054243;28;20039;-85
2022/05/25 05:43:06;;;;;;;16.17;11.52;;;;;;;19.86;57.91;95496.41;5085786;28;20414;-85
2022/05/25 05:45:33;;;;;;;18.02;10.77;;;;;;;19.75;58.51;95498.88;5070147;28;20040;-84
2022/05/25 05:48:07;;;;;;;13.80;10.48;;;;;;;19.86;58.34;95491.78;5053407;28;20036;-84
2022/05/25 05:50:33;;;;;;;15.85;11.07;;;;;;;20.13;58.62;95493.28;5086330;28;20111;-87
2022/05/25 05:52:58;;;;;;;13.65;11.30;;;;;;;20.18;58.02;95490.66;5070436;28;20519;-85
2022/05/25 05:55:24;;;;;;;14.93;10.48;;;;;;;20.37;57.08;95485.94;5085555;28;20020;-84
2022/05/25 05:57:49;;;;;;;17.27;10.88;;;;;;;20.55;57.09;95489.56;5087102;28;20024;-82
2022/05/25 06:00:15;;;;;;;17.98;10.82;;;;;;;20.71;56.93;95482.56;5087001;28;20016;-87
2022/05/25 06:02:41;;;;;;;15.25;10.10;;;;;;;20.93;56.22;95492.00;5086900;28;20050;-85
2022/05/25 06:05:07;;;;;;;15.07;10.95;;;;;;;20.81;57.64;95490.09;5086186;28;20067;-85
2022/05/25 06:07:33;;;;;;;12.57;10.50;;;;;;;20.81;56.48;95500.19;5087160;28;20020;-83
2022/05/25 06:09:58;;;;;;;11.50;10.23;;;;;;;21.05;56.00;95498.25;5086827;28;20429;-85
2022/05/25 06:12:23;;;;;;;14.00;10.43;;;;;;;21.29;56.21;95502.78;5086316;28;20020;-83
2022/05/25 06:14:49;;;;;;;12.77;10.02;;;;;;;21.51;55.50;95502.06;5053501;28;20028;-84
2022/05/25 06:19:58;;;;;;;12.93;9.20;;;;;;;21.70;55.58;95498.06;5087991;28;20039;-83
2022/05/25 06:22:24;;;;;;;15.23;9.48;;;;;;;21.80;54.64;95508.34;5086352;28;20016;-83
2022/05/25 06:24:51;;;;;;;13.73;9.85;;;;;;;21.92;54.51;95507.47;5086245;28;20032;-84
2022/05/25 06:27:17;;;;;;;18.15;9.77;;;;;;;22.15;55.11;95505.63;5086567;28;20024;-84
2022/05/25 06:29:44;;;;;;;15.82;10.43;;;;;;;21.62;55.04;95506.63;5084697;28;20027;-84
2022/05/25 06:32:11;;;;;;;14.75;11.23;;;;;;;21.55;55.78;95493.19;5086595;28;20031;-86
2022/05/25 06:34:37;;;;;;;12.38;10.43;;;;;;;21.59;56.23;95494.31;5084930;28;20512;-84
2022/05/25 06:37:03;;;;;;;15.70;10.35;;;;;;;21.54;55.75;95496.97;5086434;28;20505;-85
2022/05/25 06:39:32;;;;;;;14.20;10.32;;;;;;;21.82;55.35;95502.66;5085361;28;20073;-84
2022/05/25 06:41:58;;;;;;;12.00;10.77;;;;;;;21.22;56.93;95502.91;5068561;28;20020;-83
2022/05/25 06:44:23;;;;;;;15.75;11.63;;;;;;;21.65;56.43;95502.63;5085859;28;20059;-84
2022/05/25 06:46:49;;;;;;;16.77;10.90;;;;;;;21.80;55.99;95510.25;5068080;28;20027;-82
2022/05/25 06:49:14;;;;;;;26.33;12.07;;;;;;;21.51;56.19;95512.97;5087419;28;20539;-83
2022/05/25 06:51:40;;;;;;;14.00;11.70;;;;;;;21.58;55.35;95517.25;5067519;28;20020;-84
2022/05/25 06:54:05;;;;;;;12.30;10.73;;;;;;;21.82;55.13;95521.75;5087572;28;20020;-85
2022/05/25 06:56:31;;;;;;;16.67;11.45;;;;;;;21.67;56.55;95514.09;5084455;28;20044;-83
2022/05/25 06:58:57;;;;;;;18.20;10.95;;;;;;;21.39;56.04;95524.81;5085871;28;20020;-85
2022/05/25 07:01:23;;;;;;;13.85;10.63;;;;;;;21.78;55.42;95524.16;5068477;28;20028;-86
2022/05/25 07:03:49;;;;;;;14.30;10.23;;;;;;;22.03;54.92;95522.09;5067983;28;20131;-83
2022/05/25 07:06:15;;;;;;;12.13;9.82;;;;;;;22.22;53.22;95525.41;5085645;28;20024;-84
2022/05/25 07:08:41;;;;;;;13.52;10.73;;;;;;;22.40;53.00;95524.31;5067312;28;20115;-83
2022/05/25 07:11:06;;;;;;;13.27;10.23;;;;;;;22.63;51.96;95513.47;5087306;28;20024;-83
2022/05/25 07:13:32;;;;;;;15.55;10.52;;;;;;;22.81;51.83;95510.41;5066927;28;20114;-83
2022/05/25 07:16:02;;;;;;;17.25;10.93;;;;;;;22.93;52.83;95520.41;5068770;28;20031;-83
2022/05/25 07:18:28;;;;;;;13.82;10.13;;;;;;;22.59;51.99;95524.03;5084246;28;20095;-83
2022/05/25 07:21:07;;;;;;;11.40;9.73;;;;;;;22.70;52.23;95520.41;5068244;28;20107;-83
2022/05/25 07:23:34;;;;;;;13.98;9.80;;;;;;;22.65;52.69;95523.06;5069624;28;20554;-84
2022/05/25 07:25:59;;;;;;;15.38;10.30;;;;;;;22.72;52.38;95512.78;5083679;28;20058;-83
2022/05/25 07:28:25;;;;;;;14.23;9.82;;;;;;;22.95;51.89;95512.78;5087494;28;20371;-84
2022/05/25 07:30:51;;;;;;;14.15;9.65;;;;;;;23.15;50.77;95505.91;5085353;28;20028;-87
2022/05/25 07:33:17;;;;;;;12.13;9.52;;;;;;;23.32;51.07;95512.13;5085495;28;20058;-86
2022/05/25 07:35:42;;;;;;;12.35;8.57;;;;;;;23.45;50.24;95499.16;5084605;28;20020;-84
2022/05/25 07:38:08;;;;;;;18.33;9.57;;;;;;;23.42;51.62;95494.19;5068170;28;20032;-83
2022/05/25 07:40:35;;;;;;;14.73;8.68;;;;;;;23.45;50.54;95496.41;5068298;28;20501;-85
2022/05/25 07:43:03;;;;;;;12.18;9.00;;;;;;;23.62;50.65;95495.50;5067261;28;20034;-83
2022/05/25 07:45:30;;;;;;;13.98;8.45;;;;;;;23.78;50.05;95480.03;5085147;28;20060;-83
2022/05/25 07:47:55;;;;;;;13.88;8.80;;;;;;;23.85;49.46;95485.28;5083569;28;20433;-86
2022/05/25 07:50:22;;;;;;;13.98;9.27;;;;;;;23.92;48.75;95496.84;5086848;28;20636;-82
2022/05/25 07:52:47;;;;;;;11.40;8.85;;;;;;;23.94;48.13;95490.00;5067335;28;20036;-83
2022/05/25 07:55:13;;;;;;;17.15;8.57;;;;;;;23.80;48.79;95500.59;5068514;28;20081;-82
2022/05/25 07:57:38;;;;;;;17.33;9.20;;;;;;;23.52;49.65;95507.97;5067835;28;20016;-84
2022/05/25 08:00:05;;;;;;;12.57;9.85;;;;;;;23.24;50.40;95498.91;5085687;28;20020;-86
2022/05/25 08:08:03;;;;;;;14.95;9.38;;;;;;;23.97;48.37;95483.19;5085433;28;20027;-83
2022/05/25 08:10:29;;;;;;;10.73;8.93;;;;;;;24.04;50.01;95474.75;5067595;28;20028;-84
2022/05/25 08:12:55;;;;;;;12.32;8.77;;;;;;;24.25;48.48;95478.50;5084764;28;20020;-83
2022/05/25 08:15:21;;;;;;;13.32;8.93;;;;;;;24.34;48.00;95480.75;5068538;28;20024;-82
2022/05/25 08:17:46;;;;;;;14.23;8.45;;;;;;;24.49;47.52;95489.06;5066807;28;20103;-82
2022/05/25 08:20:12;;;;;;;12.23;8.52;;;;;;;24.61;47.62;95497.09;5068546;28;20028;-83
2022/05/25 08:22:37;;;;;;;10.05;8.32;;;;;;;24.66;47.93;95499.03;5083194;28;20032;-84
2022/05/25 08:25:04;;;;;;;13.20;8.48;;;;;;;24.85;47.61;95495.81;5068602;28;20027;-85
2022/05/25 08:27:31;;;;;;;15.02;9.27;;;;;;;24.79;47.04;95500.47;5084968;28;20579;-85
2022/05/25 08:29:57;;;;;;;14.02;9.02;;;;;;;24.67;47.51;95495.19;5084980;28;20063;-82
2022/05/25 08:32:22;;;;;;;13.30;9.07;;;;;;;24.69;47.25;95502.06;5068229;28;20103;-86
2022/05/25 08:34:48;;;;;;;14.50;9.32;;;;;;;24.76;47.13;95501.81;5084866;28;20391;-85
2022/05/25 08:37:14;;;;;;;17.02;9.38;;;;;;;24.76;46.97;95503.75;5087085;28;20024;-83
2022/05/25 08:39:39;;;;;;;17.38;8.95;;;;;;;24.77;48.45;95500.72;5070120;28;20046;-86
2022/05/25 08:42:06;;;;;;;11.70;8.98;;;;;;;24.79;48.24;95512.28;5090674;28;20024;-84
2022/05/25 08:44:32;;;;;;;19.05;10.18;;;;;;;24.75;47.27;95508.38;5053286;28;20499;-84
2022/05/25 08:46:59;;;;;;;14.80;8.85;;;;;;;24.95;46.53;95506.88;5089739;28;20016;-86
2022/05/25 08:49:25;;;;;;;20.17;9.10;;;;;;;25.00;46.74;95506.06;5070727;28;20062;-82
2022/05/25 08:51:54;;;;;;;15.05;9.35;;;;;;;25.08;47.13;95502.81;5088741;28;20028;-85
2022/05/25 08:54:20;;;;;;;18.65;9.70;;;;;;;25.27;48.10;95502.31;5089653;28;20016;-85
2022/05/25 08:56:50;;;;;;;18.60;9.93;;;;;;;25.43;46.01;95494.97;5087756;28;20020;-85
2022/05/25 08:59:23;;;;;;;11.57;8.15;;;;;;;25.58;47.68;95496.91;5071556;28;20162;-86
2022/05/25 09:01:58;;;;;;;10.70;8.35;;;;;;;25.59;45.64;95494.97;5087857;28;20072;-86
2022/05/25 09:04:49;;;;;;;12.85;9.00;;;;;;;25.64;46.54;95501.34;5089487;28;20345;-84
2022/05/25 09:07:38;;;;;;;12.93;8.10;;;;;;;25.65;46.36;95494.75;5088102;28;20040;-85
2022/05/25 09:10:04;;;;;;;12.35;8.52;;;;;;;25.84;45.63;95493.41;5086939;28;20067;-84
2022/05/25 09:12:37;;;;;;;12.73;8.13;;;;;;;25.84;46.70;95504.41;5088433;28;20027;-85
2022/05/25 09:15:23;;;;;;;13.00;8.40;;;;;;;26.00;46.83;95513.47;5086486;28;20193;-86
2022/05/25 09:17:52;;;;;;;11.95;8.30;;;;;;;25.89;45.75;95507.97;5087204;28;20800;-87
2022/05/25 09:20:24;;;;;;;12.88;7.93;;;;;;;26.01;45.00;95515.94;5088018;28;20490;-88
2022/05/25 09:22:49;;;;;;;13.23;8.40;;;;;;;26.16;44.74;95497.81;5086060;28;20051;-86
2022/05/25 09:25:15;;;;;;;13.88;7.50;;;;;;;26.28;45.42;95500.25;5088243;28;20436;-83
2022/05/25 09:28:03;;;;;;;12.75;7.90;;;;;;;26.28;45.04;95508.50;5069463;28;20050;-86
2022/05/25 09:30:29;;;;;;;13.60;8.20;;;;;;;26.26;47.03;95505.22;5087994;28;20056;-85
2022/05/25 09:33:38;;;;;;;11.23;7.68;;;;;;;26.41;44.95;95505.22;5053816;28;20024;-85
2022/05/25 09:36:28;;;;;;;12.90;7.97;;;;;;;26.48;44.17;95501.38;5055739;28;20533;-85
2022/05/25 09:39:03;;;;;;;17.27;7.80;;;;;;;26.63;44.39;95492.28;5075187;28;20036;-85
2022/05/25 09:41:31;;;;;;;13.07;7.68;;;;;;;26.78;44.13;95483.97;5087209;28;20032;-85
2022/05/25 09:43:58;;;;;;;15.40;7.40;;;;;;;26.92;44.98;95488.88;5069718;28;20537;-84
2022/05/25 09:46:28;;;;;;;11.38;7.22;;;;;;;26.84;42.35;95475.69;5088774;28;20024;-85
2022/05/25 09:49:20;;;;;;;13.13;6.90;;;;;;;26.96;42.78;95473.44;5068259;28;20483;-83
2022/05/25 09:51:51;;;;;;;10.00;6.78;;;;;;;26.93;40.82;95468.50;5064187;28;20050;-84
2022/05/25 09:54:32;;;;;;;9.98;6.72;;;;;;;26.90;40.43;95463.56;5069204;28;20024;-84
2022/05/25 09:57:10;;;;;;;11.07;6.65;;;;;;;26.88;40.45;95465.78;5086106;28;20069;-86
2022/05/25 09:59:47;;;;;;;10.05;6.47;;;;;;;26.91;40.55;95462.44;5072032;28;20036;-86
2022/05/25 10:02:25;;;;;;;11.80;6.50;;;;;;;26.86;41.12;95455.03;5085521;28;20024;-87
2022/05/25 10:04:54;;;;;;;15.77;7.78;;;;;;;26.98;43.39;95456.66;5086928;28;20032;-86
2022/05/25 10:07:30;;;;;;;12.05;7.30;;;;;;;27.05;43.42;95450.88;5086009;28;20620;-86
2022/05/25 10:09:59;;;;;;;16.20;7.85;;;;;;;27.02;42.63;95446.75;5069515;28;20039;-84
2022/05/25 10:12:42;;;;;;;13.35;6.97;;;;;;;27.05;43.48;95448.13;5074184;28;20020;-86
2022/05/25 10:15:16;;;;;;;18.23;8.02;;;;;;;27.16;42.68;95455.22;5085545;28;20028;-84
2022/05/25 10:17:44;;;;;;;11.02;6.93;;;;;;;27.17;42.37;95451.38;5086732;28;20044;-83
2022/05/25 10:20:23;;;;;;;16.35;7.20;;;;;;;27.19;42.37;95449.16;5087250;28;20054;-84
2022/05/25 10:22:51;;;;;;;13.30;7.97;;;;;;;27.08;42.99;95447.56;5087573;28;20085;-85
2022/05/25 10:25:35;;;;;;;14.57;8.20;;;;;;;27.15;43.56;95448.06;5069717;28;20452;-87
2022/05/25 10:28:01;;;;;;;12.85;7.40;;;;;;;27.33;43.05;95441.09;5084866;28;20112;-86
2022/05/25 10:36:49;;;;;;;15.98;7.80;;;;;;;27.23;41.33;95419.94;5085805;28;20085;-86
2022/05/25 10:39:26;;;;;;;14.73;7.20;;;;;;;27.13;42.31;95409.00;5086395;28;21100;-86
2022/05/25 10:41:58;;;;;;;13.75;7.10;;;;;;;27.12;41.20;95407.34;5086977;28;20150;-86
2022/05/25 10:44:24;;;;;;;;;;;;;;;27.11;44.09;95405.72;5068723;28;20051;-85
2022/05/25 10:46:54;;;;;;;12.73;6.78;;;;;;;27.30;41.62;95410.53;5086370;28;19961;-84
2022/05/25 10:49:26;;;;;;;19.83;6.35;;;;;;;27.36;39.86;95403.88;5084611;28;20093;-84
2022/05/25 10:51:59;;;;;;;14.02;7.10;;;;;;;27.35;41.39;95408.59;5087913;28;20099;-88
2022/05/25 10:54:55;;;;;;;15.32;7.45;;;;;;;27.50;40.48;95404.88;5084396;28;20023;-84
2022/05/25 10:57:27;;;;;;;13.32;6.70;;;;;;;27.64;40.05;95401.50;5086617;28;20035;-84
2022/05/25 11:00:00;;;;;;;13.52;6.78;;;;;;;27.81;41.57;95392.84;5085385;28;20093;-84
2022/05/25 11:02:50;;;;;;;18.35;7.00;;;;;;;28.00;41.46;95394.88;5083843;28;20065;-83
2022/05/25 11:05:45;;;;;;;14.48;6.80;;;;;;;28.19;38.99;95389.47;5086877;28;20051;-84
2022/05/25 11:08:25;;;;;;;10.73;6.05;;;;;;;28.31;39.65;95385.47;5085218;28;20075;-84
2022/05/25 11:11:09;;;;;;;12.02;6.53;;;;;;;28.35;39.28;95389.31;5085553;28;20024;-84
2022/05/25 11:14:06;;;;;;;13.57;5.55;;;;;;;28.56;40.65;95378.03;5086866;28;20032;-86
2022/05/25 11:16:50;;;;;;;13.88;5.97;;;;;;;28.68;39.13;95381.19;5030642;28;20043;-86
2022/05/25 11:19:27;;;;;;;11.25;5.65;;;;;;;28.79;36.62;95381.09;5084511;28;20109;-86
2022/05/25 11:22:11;;;;;;;11.13;5.80;;;;;;;28.91;36.62;95383.38;5068799;28;20028;-86
2022/05/25 11:24:39;;;;;;;10.48;5.47;;;;;;;28.95;34.68;95385.28;5085127;28;20551;-88
2022/05/25 11:27:16;;;;;;;11.65;5.85;;;;;;;29.03;35.24;95385.75;5085375;28;20115;-85
2022/05/25 11:30:02;;;;;;;10.30;5.30;;;;;;;29.09;34.39;95373.53;5085953;28;20577;-86
2022/05/25 11:32:49;;;;;;;9.63;5.47;;;;;;;29.17;34.17;95372.84;5084167;28;20111;-85
2022/05/25 11:35:34;;;;;;;17.63;5.68;;;;;;;29.24;33.93;95373.28;5086956;28;20181;-84
2022/05/25 11:38:09;;;;;;;10.98;5.25;;;;;;;29.38;35.03;95369.78;5084292;28;20035;-85
2022/05/25 11:41:05;;;;;;;12.23;4.78;;;;;;;29.52;35.49;95374.56;5085966;28;20567;-86
2022/05/25 11:43:55;;;;;;;9.88;4.38;;;;;;;29.66;32.67;95369.09;5074431;28;20032;-84
2022/05/25 11:46:43;;;;;;;9.65;4.55;;;;;;;29.84;32.08;95359.94;5086040;28;20558;-86
2022/05/25 11:49:18;;;;;;;15.65;5.50;;;;;;;29.99;34.39;95358.03;5068702;28;20020;-86
2022/05/25 11:51:49;;;;;;;10.18;4.80;;;;;;;30.20;33.26;95350.22;5086402;28;20489;-86
2022/05/25 11:54:43;;;;;;;11.57;4.93;;;;;;;30.29;32.67;95350.31;5085172;28;20103;-86
2022/05/25 11:57:35;;;;;;;13.18;4.63;;;;;;;30.45;33.33;95338.94;5068291;28;20043;-87
2022/05/25 12:00:12;;;;;;;8.57;4.77;;;;;;;30.64;33.05;95336.06;5086167;28;20039;-85
2022/05/25 12:03:06;;;;;;;10.23;4.00;;;;;;;30.52;32.45;95331.03;5085299;28;20487;-85
2022/05/25 12:06:14;;;;;;;10.95;4.43;;;;;;;30.53;29.93;95327.16;5086372;28;20035;-84